sensor_id;sensor_type;location;lat;lon;timestamp;P1;durP1;ratioP1;P2;durP2;ratioP2
76475;SDS011;65308;50.078;14.854;2023-07-13T00:01:27;5.90;;;4.40;;
76475;SDS011;65308;50.078;14.854;2023-07-13T00:03:54;6.93;;;4.53;;
76475;SDS011;65308;50.078;14.854;2023-07-13T00:06:21;7.22;;;4.30;;
76475;SDS011;65308;50.078;14.854;2023-07-13T00:08:47;7.35;;;4.70;;
76475;SDS011;65308;50.078;14.854;2023-07-13T00:11:15;7.25;;;4.90;;
76475;SDS011;65308;50.078;14.854;2023-07-13T00:13:42;6.57;;;4.18;;
76475;SDS011;65308;50.078;14.854;2023-07-13T00:16:11;5.93;;;4.10;;
76475;SDS011;65308;50.078;14.854;2023-07-13T00:18:39;5.72;;;4.25;;
76475;SDS011;65308;50.078;14.854;2023-07-13T00:21:06;6.00;;;4.18;;
76475;SDS011;65308;50.078;14.854;2023-07-13T00:23:33;6.13;;;4.20;;
76475;SDS011;65308;50.078;14.854;2023-07-13T00:26:00;5.70;;;4.40;;
76475;SDS011;65308;50.078;14.854;2023-07-13T00:28:27;7.55;;;4.28;;
76475;SDS011;65308;50.078;14.854;2023-07-13T00:30:53;6.88;;;4.57;;
76475;SDS011;65308;50.078;14.854;2023-07-13T00:33:22;5.57;;;4.03;;
76475;SDS011;65308;50.078;14.854;2023-07-13T00:35:49;6.13;;;4.35;;
76475;SDS011;65308;50.078;14.854;2023-07-13T00:38:16;7.00;;;4.30;;
76475;SDS011;65308;50.078;14.854;2023-07-13T00:40:42;6.03;;;4.18;;
76475;SDS011;65308;50.078;14.854;2023-07-13T00:43:10;6.55;;;4.13;;
76475;SDS011;65308;50.078;14.854;2023-07-13T00:48:38;5.85;;;3.92;;
76475;SDS011;65308;50.078;14.854;2023-07-13T00:51:05;5.70;;;4.05;;
76475;SDS011;65308;50.078;14.854;2023-07-13T00:53:32;5.50;;;4.10;;
76475;SDS011;65308;50.078;14.854;2023-07-13T00:56:00;6.00;;;4.22;;
76475;SDS011;65308;50.078;14.854;2023-07-13T00:58:27;6.10;;;4.28;;
76475;SDS011;65308;50.078;14.854;2023-07-13T01:00:55;6.88;;;3.92;;
76475;SDS011;65308;50.078;14.854;2023-07-13T01:03:22;6.97;;;4.78;;
76475;SDS011;65308;50.078;14.854;2023-07-13T01:05:50;5.88;;;4.68;;
76475;SDS011;65308;50.078;14.854;2023-07-13T01:08:18;7.28;;;4.63;;
76475;SDS011;65308;50.078;14.854;2023-07-13T01:10:54;6.10;;;4.85;;
76475;SDS011;65308;50.078;14.854;2023-07-13T01:13:23;5.88;;;4.30;;
76475;SDS011;65308;50.078;14.854;2023-07-13T01:15:50;6.03;;;4.40;;
76475;SDS011;65308;50.078;14.854;2023-07-13T01:18:18;5.63;;;4.45;;
76475;SDS011;65308;50.078;14.854;2023-07-13T01:20:51;6.25;;;4.43;;
76475;SDS011;65308;50.078;14.854;2023-07-13T01:23:19;6.07;;;4.78;;
76475;SDS011;65308;50.078;14.854;2023-07-13T01:28:12;6.30;;;4.10;;
76475;SDS011;65308;50.078;14.854;2023-07-13T01:30:42;7.40;;;4.53;;
76475;SDS011;65308;50.078;14.854;2023-07-13T01:33:10;6.22;;;4.63;;
76475;SDS011;65308;50.078;14.854;2023-07-13T01:35:38;6.25;;;4.35;;
76475;SDS011;65308;50.078;14.854;2023-07-13T01:38:06;6.38;;;4.47;;
76475;SDS011;65308;50.078;14.854;2023-07-13T01:40:34;7.32;;;4.70;;
76475;SDS011;65308;50.078;14.854;2023-07-13T01:43:01;8.23;;;4.85;;
76475;SDS011;65308;50.078;14.854;2023-07-13T01:45:28;8.55;;;5.38;;
76475;SDS011;65308;50.078;14.854;2023-07-13T01:47:55;7.32;;;5.05;;
76475;SDS011;65308;50.078;14.854;2023-07-13T01:50:23;6.95;;;4.82;;
76475;SDS011;65308;50.078;14.854;2023-07-13T01:52:49;8.90;;;4.85;;
76475;SDS011;65308;50.078;14.854;2023-07-13T01:55:17;8.25;;;5.40;;
76475;SDS011;65308;50.078;14.854;2023-07-13T01:57:44;6.88;;;4.53;;
76475;SDS011;65308;50.078;14.854;2023-07-13T02:00:12;7.78;;;5.25;;
76475;SDS011;65308;50.078;14.854;2023-07-13T02:02:39;6.72;;;5.07;;
76475;SDS011;65308;50.078;14.854;2023-07-13T02:05:06;6.28;;;4.30;;
76475;SDS011;65308;50.078;14.854;2023-07-13T02:07:33;8.23;;;4.68;;
76475;SDS011;65308;50.078;14.854;2023-07-13T02:10:00;7.32;;;4.90;;
76475;SDS011;65308;50.078;14.854;2023-07-13T02:12:28;9.27;;;5.57;;
76475;SDS011;65308;50.078;14.854;2023-07-13T02:14:55;8.43;;;5.22;;
76475;SDS011;65308;50.078;14.854;2023-07-13T02:17:21;6.85;;;4.68;;
76475;SDS011;65308;50.078;14.854;2023-07-13T02:19:48;7.03;;;4.63;;
76475;SDS011;65308;50.078;14.854;2023-07-13T02:22:14;6.97;;;4.80;;
76475;SDS011;65308;50.078;14.854;2023-07-13T02:24:41;6.88;;;4.82;;
76475;SDS011;65308;50.078;14.854;2023-07-13T02:27:07;7.80;;;4.97;;
76475;SDS011;65308;50.078;14.854;2023-07-13T02:29:36;8.65;;;5.63;;
76475;SDS011;65308;50.078;14.854;2023-07-13T02:32:02;7.43;;;5.35;;
76475;SDS011;65308;50.078;14.854;2023-07-13T02:34:29;7.97;;;5.82;;
76475;SDS011;65308;50.078;14.854;2023-07-13T02:36:56;8.35;;;5.68;;
76475;SDS011;65308;50.078;14.854;2023-07-13T02:39:23;7.18;;;4.90;;
76475;SDS011;65308;50.078;14.854;2023-07-13T02:41:49;7.07;;;4.53;;
76475;SDS011;65308;50.078;14.854;2023-07-13T02:44:16;8.32;;;4.90;;
76475;SDS011;65308;50.078;14.854;2023-07-13T02:46:44;7.18;;;4.85;;
76475;SDS011;65308;50.078;14.854;2023-07-13T02:49:10;8.93;;;5.22;;
76475;SDS011;65308;50.078;14.854;2023-07-13T02:51:37;6.57;;;4.55;;
76475;SDS011;65308;50.078;14.854;2023-07-13T02:54:04;9.85;;;5.90;;
76475;SDS011;65308;50.078;14.854;2023-07-13T02:56:31;7.05;;;4.90;;
76475;SDS011;65308;50.078;14.854;2023-07-13T02:58:58;6.53;;;4.47;;
76475;SDS011;65308;50.078;14.854;2023-07-13T03:01:25;7.22;;;5.53;;
76475;SDS011;65308;50.078;14.854;2023-07-13T03:03:53;7.90;;;5.15;;
76475;SDS011;65308;50.078;14.854;2023-07-13T03:06:21;9.32;;;5.10;;
76475;SDS011;65308;50.078;14.854;2023-07-13T03:08:48;7.15;;;4.68;;
76475;SDS011;65308;50.078;14.854;2023-07-13T03:11:16;8.10;;;4.47;;
76475;SDS011;65308;50.078;14.854;2023-07-13T03:13:44;6.97;;;4.82;;
76475;SDS011;65308;50.078;14.854;2023-07-13T03:16:11;7.70;;;4.35;;
76475;SDS011;65308;50.078;14.854;2023-07-13T03:18:40;7.07;;;4.40;;
76475;SDS011;65308;50.078;14.854;2023-07-13T03:21:09;8.10;;;5.13;;
76475;SDS011;65308;50.078;14.854;2023-07-13T03:23:36;7.22;;;4.80;;
76475;SDS011;65308;50.078;14.854;2023-07-13T03:26:03;7.07;;;4.63;;
76475;SDS011;65308;50.078;14.854;2023-07-13T03:28:31;7.40;;;4.85;;
76475;SDS011;65308;50.078;14.854;2023-07-13T03:30:59;7.07;;;5.03;;
76475;SDS011;65308;50.078;14.854;2023-07-13T03:33:26;6.63;;;4.85;;
76475;SDS011;65308;50.078;14.854;2023-07-13T03:35:53;8.65;;;5.38;;
76475;SDS011;65308;50.078;14.854;2023-07-13T03:38:21;7.45;;;5.15;;
76475;SDS011;65308;50.078;14.854;2023-07-13T03:40:48;6.68;;;5.05;;
76475;SDS011;65308;50.078;14.854;2023-07-13T03:43:15;7.35;;;5.00;;
76475;SDS011;65308;50.078;14.854;2023-07-13T03:45:41;7.63;;;5.20;;
76475;SDS011;65308;50.078;14.854;2023-07-13T03:48:10;7.63;;;4.80;;
76475;SDS011;65308;50.078;14.854;2023-07-13T03:50:37;6.63;;;4.70;;
76475;SDS011;65308;50.078;14.854;2023-07-13T03:53:03;8.70;;;5.00;;
76475;SDS011;65308;50.078;14.854;2023-07-13T03:55:31;8.20;;;5.38;;
76475;SDS011;65308;50.078;14.854;2023-07-13T03:57:59;7.38;;;5.03;;
76475;SDS011;65308;50.078;14.854;2023-07-13T04:00:26;7.97;;;5.20;;
76475;SDS011;65308;50.078;14.854;2023-07-13T04:02:53;9.88;;;5.85;;
76475;SDS011;65308;50.078;14.854;2023-07-13T04:05:19;8.18;;;5.43;;
76475;SDS011;65308;50.078;14.854;2023-07-13T04:07:46;8.27;;;6.07;;
76475;SDS011;65308;50.078;14.854;2023-07-13T04:10:12;7.68;;;5.90;;
76475;SDS011;65308;50.078;14.854;2023-07-13T04:12:40;7.50;;;5.50;;
76475;SDS011;65308;50.078;14.854;2023-07-13T04:15:07;8.65;;;5.05;;
76475;SDS011;65308;50.078;14.854;2023-07-13T04:20:01;7.00;;;4.97;;
76475;SDS011;65308;50.078;14.854;2023-07-13T04:22:28;6.72;;;4.50;;
76475;SDS011;65308;50.078;14.854;2023-07-13T04:24:55;7.53;;;4.60;;
76475;SDS011;65308;50.078;14.854;2023-07-13T04:27:21;7.72;;;4.50;;
76475;SDS011;65308;50.078;14.854;2023-07-13T04:29:49;5.90;;;3.80;;
76475;SDS011;65308;50.078;14.854;2023-07-13T04:32:16;7.78;;;4.05;;
76475;SDS011;65308;50.078;14.854;2023-07-13T04:34:43;5.63;;;3.50;;
76475;SDS011;65308;50.078;14.854;2023-07-13T04:37:09;6.18;;;3.20;;
76475;SDS011;65308;50.078;14.854;2023-07-13T04:39:36;6.50;;;3.78;;
76475;SDS011;65308;50.078;14.854;2023-07-13T04:42:03;6.18;;;3.58;;
76475;SDS011;65308;50.078;14.854;2023-07-13T04:44:30;6.93;;;3.28;;
76475;SDS011;65308;50.078;14.854;2023-07-13T04:46:58;4.63;;;3.63;;
76475;SDS011;65308;50.078;14.854;2023-07-13T04:49:24;5.28;;;3.60;;
76475;SDS011;65308;50.078;14.854;2023-07-13T04:51:51;5.20;;;3.55;;
76475;SDS011;65308;50.078;14.854;2023-07-13T04:54:19;4.57;;;3.50;;
76475;SDS011;65308;50.078;14.854;2023-07-13T04:56:46;5.38;;;3.55;;
76475;SDS011;65308;50.078;14.854;2023-07-13T04:59:13;7.53;;;3.33;;
76475;SDS011;65308;50.078;14.854;2023-07-13T05:01:39;5.10;;;3.42;;
76475;SDS011;65308;50.078;14.854;2023-07-13T05:04:08;5.70;;;3.50;;
76475;SDS011;65308;50.078;14.854;2023-07-13T05:06:34;5.90;;;3.70;;
76475;SDS011;65308;50.078;14.854;2023-07-13T05:09:01;7.38;;;3.47;;
76475;SDS011;65308;50.078;14.854;2023-07-13T05:11:28;5.07;;;3.30;;
76475;SDS011;65308;50.078;14.854;2023-07-13T05:13:55;5.45;;;3.55;;
76475;SDS011;65308;50.078;14.854;2023-07-13T05:16:21;5.03;;;3.05;;
76475;SDS011;65308;50.078;14.854;2023-07-13T05:18:48;4.40;;;3.22;;
76475;SDS011;65308;50.078;14.854;2023-07-13T05:21:16;5.43;;;3.60;;
76475;SDS011;65308;50.078;14.854;2023-07-13T05:23:42;4.45;;;3.30;;
76475;SDS011;65308;50.078;14.854;2023-07-13T05:26:09;5.30;;;3.13;;
76475;SDS011;65308;50.078;14.854;2023-07-13T05:28:37;4.90;;;3.10;;
76475;SDS011;65308;50.078;14.854;2023-07-13T05:31:04;4.35;;;3.15;;
76475;SDS011;65308;50.078;14.854;2023-07-13T05:33:31;4.57;;;3.13;;
76475;SDS011;65308;50.078;14.854;2023-07-13T05:35:57;5.22;;;3.08;;
76475;SDS011;65308;50.078;14.854;2023-07-13T05:38:27;4.78;;;3.10;;
76475;SDS011;65308;50.078;14.854;2023-07-13T05:40:54;4.93;;;3.40;;
76475;SDS011;65308;50.078;14.854;2023-07-13T05:43:22;5.55;;;3.05;;
76475;SDS011;65308;50.078;14.854;2023-07-13T05:45:49;5.57;;;3.03;;
76475;SDS011;65308;50.078;14.854;2023-07-13T05:48:18;4.82;;;2.85;;
76475;SDS011;65308;50.078;14.854;2023-07-13T05:50:45;6.15;;;3.40;;
76475;SDS011;65308;50.078;14.854;2023-07-13T05:53:12;6.03;;;3.28;;
76475;SDS011;65308;50.078;14.854;2023-07-13T05:55:42;5.05;;;3.13;;
76475;SDS011;65308;50.078;14.854;2023-07-13T05:58:09;4.75;;;3.05;;
76475;SDS011;65308;50.078;14.854;2023-07-13T06:00:37;4.65;;;3.15;;
76475;SDS011;65308;50.078;14.854;2023-07-13T06:03:03;4.57;;;3.20;;
76475;SDS011;65308;50.078;14.854;2023-07-13T06:05:31;6.25;;;3.05;;
76475;SDS011;65308;50.078;14.854;2023-07-13T06:07:59;9.52;;;3.67;;
76475;SDS011;65308;50.078;14.854;2023-07-13T06:10:26;5.63;;;3.30;;
76475;SDS011;65308;50.078;14.854;2023-07-13T06:12:54;4.22;;;3.50;;
76475;SDS011;65308;50.078;14.854;2023-07-13T06:15:20;4.97;;;2.90;;
76475;SDS011;65308;50.078;14.854;2023-07-13T06:17:47;4.57;;;3.00;;
76475;SDS011;65308;50.078;14.854;2023-07-13T06:20:14;6.05;;;3.60;;
76475;SDS011;65308;50.078;14.854;2023-07-13T06:22:40;4.43;;;3.00;;
76475;SDS011;65308;50.078;14.854;2023-07-13T06:25:07;3.60;;;2.90;;
76475;SDS011;65308;50.078;14.854;2023-07-13T06:27:35;4.25;;;2.95;;
76475;SDS011;65308;50.078;14.854;2023-07-13T06:30:03;4.90;;;3.10;;
76475;SDS011;65308;50.078;14.854;2023-07-13T06:32:30;4.40;;;3.80;;
76475;SDS011;65308;50.078;14.854;2023-07-13T06:34:57;5.10;;;3.13;;
76475;SDS011;65308;50.078;14.854;2023-07-13T06:37:23;5.43;;;3.40;;
76475;SDS011;65308;50.078;14.854;2023-07-13T06:39:50;5.28;;;3.33;;
76475;SDS011;65308;50.078;14.854;2023-07-13T06:42:16;4.00;;;3.33;;
76475;SDS011;65308;50.078;14.854;2023-07-13T06:44:43;5.30;;;3.25;;
76475;SDS011;65308;50.078;14.854;2023-07-13T06:47:17;5.60;;;3.58;;
76475;SDS011;65308;50.078;14.854;2023-07-13T06:49:48;5.45;;;3.50;;
76475;SDS011;65308;50.078;14.854;2023-07-13T06:52:16;5.32;;;3.53;;
76475;SDS011;65308;50.078;14.854;2023-07-13T06:54:57;4.60;;;4.20;;
76475;SDS011;65308;50.078;14.854;2023-07-13T06:57:24;4.03;;;3.53;;
76475;SDS011;65308;50.078;14.854;2023-07-13T06:59:51;4.35;;;3.95;;
76475;SDS011;65308;50.078;14.854;2023-07-13T07:02:19;5.60;;;4.05;;
76475;SDS011;65308;50.078;14.854;2023-07-13T07:04:46;4.65;;;4.25;;
76475;SDS011;65308;50.078;14.854;2023-07-13T07:07:15;5.20;;;4.03;;
76475;SDS011;65308;50.078;14.854;2023-07-13T07:09:41;25.83;;;5.43;;
76475;SDS011;65308;50.078;14.854;2023-07-13T07:12:08;4.68;;;4.22;;
76475;SDS011;65308;50.078;14.854;2023-07-13T07:14:35;4.32;;;3.88;;
76475;SDS011;65308;50.078;14.854;2023-07-13T07:17:01;5.32;;;4.03;;
76475;SDS011;65308;50.078;14.854;2023-07-13T07:21:59;4.85;;;3.88;;
76475;SDS011;65308;50.078;14.854;2023-07-13T07:24:26;4.72;;;3.70;;
76475;SDS011;65308;50.078;14.854;2023-07-13T07:26:52;6.47;;;4.03;;
76475;SDS011;65308;50.078;14.854;2023-07-13T07:29:19;5.18;;;3.70;;
76475;SDS011;65308;50.078;14.854;2023-07-13T07:31:46;4.00;;;3.40;;
76475;SDS011;65308;50.078;14.854;2023-07-13T07:34:12;4.80;;;3.55;;
76475;SDS011;65308;50.078;14.854;2023-07-13T07:36:40;5.93;;;4.13;;
76475;SDS011;65308;50.078;14.854;2023-07-13T07:39:07;5.10;;;4.18;;
76475;SDS011;65308;50.078;14.854;2023-07-13T07:41:33;4.35;;;3.72;;
76475;SDS011;65308;50.078;14.854;2023-07-13T07:44:00;5.20;;;4.70;;
76475;SDS011;65308;50.078;14.854;2023-07-13T07:46:27;6.15;;;5.65;;
76475;SDS011;65308;50.078;14.854;2023-07-13T07:48:54;5.95;;;5.45;;
76475;SDS011;65308;50.078;14.854;2023-07-13T07:51:21;5.90;;;5.35;;
76475;SDS011;65308;50.078;14.854;2023-07-13T07:53:49;6.53;;;5.93;;
76475;SDS011;65308;50.078;14.854;2023-07-13T07:56:16;8.18;;;6.50;;
76475;SDS011;65308;50.078;14.854;2023-07-13T08:01:09;5.97;;;5.47;;
76475;SDS011;65308;50.078;14.854;2023-07-13T08:03:36;8.80;;;8.20;;
76475;SDS011;65308;50.078;14.854;2023-07-13T08:06:03;7.53;;;6.95;;
76475;SDS011;65308;50.078;14.854;2023-07-13T08:08:30;6.38;;;5.88;;
76475;SDS011;65308;50.078;14.854;2023-07-13T08:10:58;9.55;;;9.02;;
76475;SDS011;65308;50.078;14.854;2023-07-13T08:13:28;7.60;;;7.07;;
76475;SDS011;65308;50.078;14.854;2023-07-13T08:15:55;13.68;;;8.52;;
76475;SDS011;65308;50.078;14.854;2023-07-13T08:18:22;10.88;;;10.20;;
76475;SDS011;65308;50.078;14.854;2023-07-13T08:20:48;8.73;;;8.13;;
76475;SDS011;65308;50.078;14.854;2023-07-13T08:23:15;7.25;;;6.75;;
76475;SDS011;65308;50.078;14.854;2023-07-13T08:25:42;8.82;;;8.30;;
76475;SDS011;65308;50.078;14.854;2023-07-13T08:28:10;5.32;;;4.93;;
76475;SDS011;65308;50.078;14.854;2023-07-13T08:30:37;4.63;;;4.22;;
76475;SDS011;65308;50.078;14.854;2023-07-13T08:35:30;4.57;;;3.65;;
76475;SDS011;65308;50.078;14.854;2023-07-13T08:37:57;4.88;;;4.35;;
76475;SDS011;65308;50.078;14.854;2023-07-13T08:40:25;4.90;;;3.85;;
76475;SDS011;65308;50.078;14.854;2023-07-13T08:42:53;5.13;;;3.40;;
76475;SDS011;65308;50.078;14.854;2023-07-13T08:45:25;4.32;;;3.28;;
76475;SDS011;65308;50.078;14.854;2023-07-13T08:47:58;3.80;;;2.95;;
76475;SDS011;65308;50.078;14.854;2023-07-13T08:50:30;3.75;;;3.30;;
76475;SDS011;65308;50.078;14.854;2023-07-13T08:53:01;3.85;;;3.15;;
76475;SDS011;65308;50.078;14.854;2023-07-13T08:55:31;3.78;;;2.83;;
76475;SDS011;65308;50.078;14.854;2023-07-13T08:58:03;4.45;;;3.10;;
76475;SDS011;65308;50.078;14.854;2023-07-13T09:00:38;5.93;;;3.20;;
76475;SDS011;65308;50.078;14.854;2023-07-13T09:03:22;4.43;;;3.13;;
76475;SDS011;65308;50.078;14.854;2023-07-13T09:05:53;4.25;;;2.80;;
76475;SDS011;65308;50.078;14.854;2023-07-13T09:08:28;4.32;;;3.03;;
76475;SDS011;65308;50.078;14.854;2023-07-13T09:11:08;4.28;;;2.95;;
76475;SDS011;65308;50.078;14.854;2023-07-13T09:13:47;4.82;;;3.22;;
76475;SDS011;65308;50.078;14.854;2023-07-13T09:16:25;5.80;;;3.67;;
76475;SDS011;65308;50.078;14.854;2023-07-13T09:18:52;3.97;;;3.10;;
76475;SDS011;65308;50.078;14.854;2023-07-13T09:21:35;4.65;;;4.22;;
76475;SDS011;65308;50.078;14.854;2023-07-13T09:24:21;3.80;;;3.40;;
76475;SDS011;65308;50.078;14.854;2023-07-13T09:26:55;4.32;;;3.45;;
76475;SDS011;65308;50.078;14.854;2023-07-13T09:29:26;4.57;;;3.97;;
76475;SDS011;65308;50.078;14.854;2023-07-13T09:34:25;4.53;;;4.13;;
76475;SDS011;65308;50.078;14.854;2023-07-13T09:36:52;4.45;;;4.05;;
76475;SDS011;65308;50.078;14.854;2023-07-13T09:39:21;5.50;;;4.63;;
76475;SDS011;65308;50.078;14.854;2023-07-13T09:41:53;4.35;;;3.20;;
76475;SDS011;65308;50.078;14.854;2023-07-13T09:44:27;4.65;;;3.60;;
76475;SDS011;65308;50.078;14.854;2023-07-13T09:46:57;3.40;;;2.95;;
76475;SDS011;65308;50.078;14.854;2023-07-13T09:49:24;4.85;;;3.35;;
76475;SDS011;65308;50.078;14.854;2023-07-13T09:51:57;4.03;;;3.15;;
76475;SDS011;65308;50.078;14.854;2023-07-13T09:54:26;4.18;;;2.90;;
76475;SDS011;65308;50.078;14.854;2023-07-13T09:59:23;3.83;;;3.00;;
76475;SDS011;65308;50.078;14.854;2023-07-13T10:01:53;4.45;;;3.28;;
76475;SDS011;65308;50.078;14.854;2023-07-13T10:04:21;4.35;;;2.97;;
76475;SDS011;65308;50.078;14.854;2023-07-13T10:06:52;3.30;;;2.50;;
76475;SDS011;65308;50.078;14.854;2023-07-13T10:09:32;4.22;;;2.72;;
76475;SDS011;65308;50.078;14.854;2023-07-13T10:11:58;5.38;;;2.38;;
76475;SDS011;65308;50.078;14.854;2023-07-13T10:14:25;3.92;;;2.50;;
76475;SDS011;65308;50.078;14.854;2023-07-13T10:16:52;3.60;;;2.30;;
76475;SDS011;65308;50.078;14.854;2023-07-13T10:19:29;3.83;;;2.40;;
76475;SDS011;65308;50.078;14.854;2023-07-13T10:21:59;3.95;;;2.20;;
76475;SDS011;65308;50.078;14.854;2023-07-13T10:24:29;3.17;;;2.20;;
76475;SDS011;65308;50.078;14.854;2023-07-13T10:27:00;3.83;;;2.40;;
76475;SDS011;65308;50.078;14.854;2023-07-13T10:29:32;5.30;;;3.28;;
76475;SDS011;65308;50.078;14.854;2023-07-13T10:32:03;3.72;;;2.40;;
76475;SDS011;65308;50.078;14.854;2023-07-13T10:34:36;3.10;;;2.58;;
76475;SDS011;65308;50.078;14.854;2023-07-13T10:37:04;4.32;;;2.33;;
76475;SDS011;65308;50.078;14.854;2023-07-13T10:39:34;3.53;;;2.25;;
76475;SDS011;65308;50.078;14.854;2023-07-13T10:42:03;4.20;;;2.30;;
76475;SDS011;65308;50.078;14.854;2023-07-13T10:44:33;3.33;;;2.30;;
76475;SDS011;65308;50.078;14.854;2023-07-13T10:49:28;3.75;;;2.10;;
76475;SDS011;65308;50.078;14.854;2023-07-13T10:51:58;3.92;;;2.35;;
76475;SDS011;65308;50.078;14.854;2023-07-13T10:54:30;4.18;;;2.65;;
76475;SDS011;65308;50.078;14.854;2023-07-13T10:57:07;3.30;;;2.20;;
76475;SDS011;65308;50.078;14.854;2023-07-13T10:59:42;3.65;;;2.40;;
76475;SDS011;65308;50.078;14.854;2023-07-13T11:02:13;3.38;;;2.10;;
76475;SDS011;65308;50.078;14.854;2023-07-13T11:04:47;3.42;;;2.00;;
76475;SDS011;65308;50.078;14.854;2023-07-13T11:07:20;3.13;;;2.10;;
76475;SDS011;65308;50.078;14.854;2023-07-13T11:09:50;4.40;;;2.42;;
76475;SDS011;65308;50.078;14.854;2023-07-13T11:12:26;3.38;;;2.20;;
76475;SDS011;65308;50.078;14.854;2023-07-13T11:15:09;4.45;;;2.40;;
76475;SDS011;65308;50.078;14.854;2023-07-13T11:17:38;4.03;;;2.22;;
76475;SDS011;65308;50.078;14.854;2023-07-13T11:20:22;4.95;;;2.42;;
76475;SDS011;65308;50.078;14.854;2023-07-13T11:23:08;3.35;;;2.33;;
76475;SDS011;65308;50.078;14.854;2023-07-13T11:25:46;3.08;;;2.40;;
76475;SDS011;65308;50.078;14.854;2023-07-13T11:30:46;4.20;;;2.30;;
76475;SDS011;65308;50.078;14.854;2023-07-13T11:33:16;3.65;;;2.20;;
76475;SDS011;65308;50.078;14.854;2023-07-13T11:35:46;3.40;;;2.40;;
76475;SDS011;65308;50.078;14.854;2023-07-13T11:38:20;4.22;;;2.22;;
76475;SDS011;65308;50.078;14.854;2023-07-13T11:40:48;4.22;;;2.30;;
76475;SDS011;65308;50.078;14.854;2023-07-13T11:43:18;3.60;;;2.25;;
76475;SDS011;65308;50.078;14.854;2023-07-13T11:45:44;2.97;;;2.13;;
76475;SDS011;65308;50.078;14.854;2023-07-13T11:48:21;5.55;;;2.20;;
76475;SDS011;65308;50.078;14.854;2023-07-13T11:50:57;4.72;;;2.13;;
76475;SDS011;65308;50.078;14.854;2023-07-13T11:53:28;3.45;;;2.10;;
76475;SDS011;65308;50.078;14.854;2023-07-13T11:55:58;2.58;;;1.90;;
76475;SDS011;65308;50.078;14.854;2023-07-13T11:58:26;3.88;;;2.20;;
76475;SDS011;65308;50.078;14.854;2023-07-13T12:00:55;4.15;;;2.13;;
76475;SDS011;65308;50.078;14.854;2023-07-13T12:03:31;3.88;;;2.17;;
76475;SDS011;65308;50.078;14.854;2023-07-13T12:06:00;6.35;;;2.60;;
76475;SDS011;65308;50.078;14.854;2023-07-13T12:08:32;3.20;;;2.28;;
76475;SDS011;65308;50.078;14.854;2023-07-13T12:11:09;4.32;;;2.20;;
76475;SDS011;65308;50.078;14.854;2023-07-13T12:13:41;3.53;;;2.00;;
76475;SDS011;65308;50.078;14.854;2023-07-13T12:16:12;3.25;;;2.20;;
76475;SDS011;65308;50.078;14.854;2023-07-13T12:18:42;2.80;;;2.20;;
76475;SDS011;65308;50.078;14.854;2023-07-13T12:21:13;3.63;;;2.13;;
76475;SDS011;65308;50.078;14.854;2023-07-13T12:23:44;3.08;;;2.10;;
76475;SDS011;65308;50.078;14.854;2023-07-13T12:26:14;3.78;;;2.33;;
76475;SDS011;65308;50.078;14.854;2023-07-13T12:28:44;3.58;;;2.13;;
76475;SDS011;65308;50.078;14.854;2023-07-13T12:31:23;3.17;;;2.10;;
76475;SDS011;65308;50.078;14.854;2023-07-13T12:33:58;4.18;;;2.10;;
76475;SDS011;65308;50.078;14.854;2023-07-13T12:36:29;3.00;;;2.10;;
76475;SDS011;65308;50.078;14.854;2023-07-13T12:38:59;3.40;;;2.13;;
76475;SDS011;65308;50.078;14.854;2023-07-13T12:41:31;4.05;;;2.38;;
76475;SDS011;65308;50.078;14.854;2023-07-13T12:43:59;4.13;;;2.35;;
76475;SDS011;65308;50.078;14.854;2023-07-13T12:48:54;3.95;;;2.33;;
76475;SDS011;65308;50.078;14.854;2023-07-13T12:51:21;4.07;;;2.03;;
76475;SDS011;65308;50.078;14.854;2023-07-13T12:53:55;3.97;;;2.25;;
76475;SDS011;65308;50.078;14.854;2023-07-13T12:56:26;5.53;;;2.17;;
76475;SDS011;65308;50.078;14.854;2023-07-13T12:58:57;4.20;;;2.28;;
76475;SDS011;65308;50.078;14.854;2023-07-13T13:01:25;8.43;;;2.45;;
76475;SDS011;65308;50.078;14.854;2023-07-13T13:03:53;4.95;;;2.63;;
76475;SDS011;65308;50.078;14.854;2023-07-13T13:06:22;3.85;;;2.38;;
76475;SDS011;65308;50.078;14.854;2023-07-13T13:08:51;3.67;;;2.40;;
76475;SDS011;65308;50.078;14.854;2023-07-13T13:11:19;3.42;;;1.98;;
76475;SDS011;65308;50.078;14.854;2023-07-13T13:13:49;3.95;;;2.50;;
76475;SDS011;65308;50.078;14.854;2023-07-13T13:16:18;4.35;;;2.42;;
76475;SDS011;65308;50.078;14.854;2023-07-13T13:18:47;2.72;;;2.10;;
76475;SDS011;65308;50.078;14.854;2023-07-13T13:21:14;3.60;;;2.22;;
76475;SDS011;65308;50.078;14.854;2023-07-13T13:23:41;5.25;;;2.40;;
76475;SDS011;65308;50.078;14.854;2023-07-13T13:26:10;3.00;;;2.20;;
76475;SDS011;65308;50.078;14.854;2023-07-13T13:28:37;4.22;;;2.30;;
76475;SDS011;65308;50.078;14.854;2023-07-13T13:31:07;3.58;;;2.40;;
76475;SDS011;65308;50.078;14.854;2023-07-13T13:33:37;3.33;;;2.45;;
76475;SDS011;65308;50.078;14.854;2023-07-13T13:36:08;3.47;;;2.45;;
76475;SDS011;65308;50.078;14.854;2023-07-13T13:38:40;4.10;;;2.40;;
76475;SDS011;65308;50.078;14.854;2023-07-13T13:41:07;3.17;;;2.40;;
76475;SDS011;65308;50.078;14.854;2023-07-13T13:43:36;3.30;;;2.10;;
76475;SDS011;65308;50.078;14.854;2023-07-13T13:46:03;2.72;;;2.20;;
76475;SDS011;65308;50.078;14.854;2023-07-13T13:48:40;5.90;;;2.55;;
76475;SDS011;65308;50.078;14.854;2023-07-13T13:53:39;4.70;;;2.20;;
76475;SDS011;65308;50.078;14.854;2023-07-13T13:56:06;3.53;;;2.33;;
76475;SDS011;65308;50.078;14.854;2023-07-13T13:58:33;3.92;;;2.63;;
76475;SDS011;65308;50.078;14.854;2023-07-13T14:01:00;3.45;;;2.50;;
76475;SDS011;65308;50.078;14.854;2023-07-13T14:03:28;3.95;;;2.50;;
76475;SDS011;65308;50.078;14.854;2023-07-13T14:05:54;3.67;;;2.63;;
76475;SDS011;65308;50.078;14.854;2023-07-13T14:08:22;4.28;;;2.20;;
76475;SDS011;65308;50.078;14.854;2023-07-13T14:10:49;6.70;;;2.72;;
76475;SDS011;65308;50.078;14.854;2023-07-13T14:13:20;3.10;;;2.30;;
76475;SDS011;65308;50.078;14.854;2023-07-13T14:15:48;3.83;;;2.28;;
76475;SDS011;65308;50.078;14.854;2023-07-13T14:20:44;3.10;;;2.20;;
76475;SDS011;65308;50.078;14.854;2023-07-13T14:23:12;4.00;;;2.33;;
76475;SDS011;65308;50.078;14.854;2023-07-13T14:25:39;3.25;;;2.60;;
76475;SDS011;65308;50.078;14.854;2023-07-13T14:28:11;3.60;;;2.38;;
76475;SDS011;65308;50.078;14.854;2023-07-13T14:30:46;3.00;;;2.30;;
76475;SDS011;65308;50.078;14.854;2023-07-13T14:33:13;4.45;;;2.13;;
76475;SDS011;65308;50.078;14.854;2023-07-13T14:35:39;4.28;;;2.22;;
76475;SDS011;65308;50.078;14.854;2023-07-13T14:38:09;3.75;;;2.30;;
76475;SDS011;65308;50.078;14.854;2023-07-13T14:40:39;4.70;;;2.30;;
76475;SDS011;65308;50.078;14.854;2023-07-13T14:43:09;3.92;;;2.10;;
76475;SDS011;65308;50.078;14.854;2023-07-13T14:45:38;3.03;;;2.30;;
76475;SDS011;65308;50.078;14.854;2023-07-13T14:48:10;3.10;;;2.00;;
76475;SDS011;65308;50.078;14.854;2023-07-13T14:50:40;4.50;;;2.30;;
76475;SDS011;65308;50.078;14.854;2023-07-13T14:53:10;3.50;;;2.40;;
76475;SDS011;65308;50.078;14.854;2023-07-13T14:55:37;3.65;;;2.22;;
76475;SDS011;65308;50.078;14.854;2023-07-13T15:00:31;3.63;;;2.30;;
76475;SDS011;65308;50.078;14.854;2023-07-13T15:02:58;4.05;;;2.35;;
76475;SDS011;65308;50.078;14.854;2023-07-13T15:05:26;3.50;;;2.15;;
76475;SDS011;65308;50.078;14.854;2023-07-13T15:07:56;3.72;;;2.10;;
76475;SDS011;65308;50.078;14.854;2023-07-13T15:10:26;4.05;;;2.08;;
76475;SDS011;65308;50.078;14.854;2023-07-13T15:12:56;4.80;;;2.40;;
76475;SDS011;65308;50.078;14.854;2023-07-13T15:15:26;4.53;;;2.28;;
76475;SDS011;65308;50.078;14.854;2023-07-13T15:17:53;3.75;;;2.53;;